AR258 EDLV-EDLV
Flight info
| Callsign | AR258 |
|---|---|
| Flight time | N/A |
| Altitude | |
| Route | EDLV/09 |
| Aircraft | C172 |
Departure
| Time | 2026-05-01 09:54 |
|---|---|
| Airport | Weeze (Niederrhein) Airport (EDLV) |
Arrival
| Time | N/A |
|---|---|
| Airport | Weeze (Niederrhein) Airport (EDLV) |
| Time | Latitude | Longitude | Altitude | Speed | Heading |
|---|---|---|---|---|---|
| 2026-05-01 09:42 | 51.59918 | 6.14881 | 100 ft | 0 kts | 92° |
| 2026-05-01 09:46 | 51.59920 | 6.14886 | 100 ft | 3 kts | 33° |
| 2026-05-01 09:46 | 51.59921 | 6.14818 | 100 ft | 8 kts | 283° |
| 2026-05-01 09:46 | 51.59935 | 6.14791 | 100 ft | 0 kts | 349° |
| 2026-05-01 09:47 | 51.59938 | 6.14791 | 100 ft | 3 kts | 0° |
| 2026-05-01 09:47 | 51.60016 | 6.14780 | 100 ft | 16 kts | 309° |
| 2026-05-01 09:48 | 51.60047 | 6.14577 | 99 ft | 23 kts | 272° |
| 2026-05-01 09:48 | 51.60053 | 6.14326 | 98 ft | 21 kts | 272° |
| 2026-05-01 09:48 | 51.60058 | 6.14103 | 98 ft | 18 kts | 272° |
| 2026-05-01 09:48 | 51.60062 | 6.13916 | 97 ft | 15 kts | 272° |
| 2026-05-01 09:49 | 51.60064 | 6.13769 | 97 ft | 12 kts | 269° |
| 2026-05-01 09:49 | 51.60065 | 6.13657 | 97 ft | 8 kts | 274° |
| 2026-05-01 09:49 | 51.60069 | 6.13577 | 96 ft | 6 kts | 274° |
| 2026-05-01 09:49 | 51.60071 | 6.13520 | 96 ft | 4 kts | 274° |
| 2026-05-01 09:50 | 51.60072 | 6.13463 | 96 ft | 9 kts | 272° |
| 2026-05-01 09:50 | 51.60075 | 6.13310 | 96 ft | 19 kts | 272° |
| 2026-05-01 09:50 | 51.60079 | 6.13063 | 95 ft | 22 kts | 272° |
| 2026-05-01 09:50 | 51.60158 | 6.12948 | 94 ft | 18 kts | 11° |
| 2026-05-01 09:51 | 51.60181 | 6.12953 | 94 ft | 0 kts | 3° |
| 2026-05-01 09:52 | 51.60235 | 6.12957 | 93 ft | 13 kts | 4° |
| 2026-05-01 09:52 | 51.60269 | 6.13018 | 93 ft | 0 kts | 87° |
| 2026-05-01 09:54 | 51.60265 | 6.13419 | 98 ft | 75 kts | 92° |
| 2026-05-01 09:54 | 51.60245 | 6.14547 | 377 ft | 114 kts | 92° |
| 2026-05-01 09:54 | 51.60220 | 6.15911 | 926 ft | 126 kts | 97° |
| 2026-05-01 09:54 | 51.60133 | 6.17206 | 1761 ft | 120 kts | 108° |
| 2026-05-01 09:55 | 51.60120 | 6.18622 | 2413 ft | 122 kts | 90° |
| 2026-05-01 09:55 | 51.60229 | 6.20179 | 2617 ft | 169 kts | 99° |
| 2026-05-01 09:55 | 51.60097 | 6.22103 | 3510 ft | 176 kts | 103° |
| 2026-05-01 09:55 | 51.60039 | 6.24178 | 3630 ft | 189 kts | 97° |
| 2026-05-01 09:56 | 51.60042 | 6.26309 | 3502 ft | 189 kts | 97° |
| 2026-05-01 09:56 | 51.60041 | 6.28408 | 3360 ft | 187 kts | 96° |
| 2026-05-01 09:56 | 51.60079 | 6.30466 | 3344 ft | 180 kts | 97° |
| 2026-05-01 09:56 | 51.60101 | 6.32450 | 3335 ft | 176 kts | 96° |
| 2026-05-01 09:57 | 51.60084 | 6.34383 | 3324 ft | 167 kts | 113° |
| 2026-05-01 09:57 | 51.59540 | 6.35970 | 3329 ft | 162 kts | 127° |
| 2026-05-01 09:57 | 51.59048 | 6.37676 | 3323 ft | 163 kts | 113° |
| 2026-05-01 09:57 | 51.58853 | 6.39379 | 3324 ft | 165 kts | 105° |
| 2026-05-01 09:58 | 51.58732 | 6.41148 | 3336 ft | 167 kts | 103° |
| 2026-05-01 09:58 | 51.58653 | 6.43083 | 3334 ft | 167 kts | 102° |
| 2026-05-01 09:58 | 51.58540 | 6.44939 | 3324 ft | 166 kts | 104° |
| 2026-05-01 09:58 | 51.58423 | 6.46793 | 3320 ft | 166 kts | 103° |
| 2026-05-01 09:59 | 51.58312 | 6.48628 | 3322 ft | 164 kts | 103° |
| 2026-05-01 09:59 | 51.58224 | 6.50460 | 3328 ft | 164 kts | 103° |
| 2026-05-01 09:59 | 51.58141 | 6.52302 | 3339 ft | 166 kts | 102° |
| 2026-05-01 09:59 | 51.58020 | 6.54151 | 3328 ft | 167 kts | 105° |
| 2026-05-01 10:00 | 51.57900 | 6.55988 | 3322 ft | 168 kts | 103° |
| 2026-05-01 10:00 | 51.57806 | 6.57891 | 3321 ft | 181 kts | 103° |
| 2026-05-01 10:00 | 51.57691 | 6.59940 | 3337 ft | 198 kts | 102° |
| 2026-05-01 10:00 | 51.57562 | 6.62201 | 3340 ft | 209 kts | 101° |
| 2026-05-01 10:01 | 51.57430 | 6.64579 | 3336 ft | 216 kts | 101° |
| 2026-05-01 10:01 | 51.57296 | 6.67004 | 3343 ft | 219 kts | 101° |
| 2026-05-01 10:01 | 51.57156 | 6.69473 | 3331 ft | 222 kts | 101° |
| 2026-05-01 10:01 | 51.57018 | 6.71950 | 3328 ft | 223 kts | 101° |
| 2026-05-01 10:02 | 51.56871 | 6.74443 | 3327 ft | 223 kts | 101° |
| 2026-05-01 10:02 | 51.56728 | 6.76910 | 3341 ft | 226 kts | 100° |
| 2026-05-01 10:02 | 51.56587 | 6.79449 | 3328 ft | 226 kts | 100° |
| 2026-05-01 10:02 | 51.56442 | 6.81902 | 3328 ft | 225 kts | 100° |
| 2026-05-01 10:03 | 51.56298 | 6.84401 | 3331 ft | 225 kts | 101° |
| 2026-05-01 10:03 | 51.56152 | 6.86899 | 3334 ft | 224 kts | 101° |